Time;durP1;ratioP1;P1;durP2;ratioP2;P2;SDS_P1;SDS_P2;PMS_P1;PMS_P2;Temp;Humidity;BMP_temperature;BMP_pressure;BME280_temperature;BME280_humidity;BME280_pressure;Samples;Min_cycle;Max_cycle;Signal;HPM_P1;HPM_P2
2024/01/29 00:01:55;;;;;;;4.90;1.80;;;9.80;78.30;;;9.56;43.25;101425.00;5100381;28;20119;-80
2024/01/29 00:04:23;;;;;;;6.40;2.03;;;9.80;78.50;;;9.57;43.28;101428.53;5097750;28;20425;-81
2024/01/29 00:06:54;;;;;;;4.00;2.00;;;9.70;78.30;;;9.53;43.12;101420.88;5065616;28;20082;-81
2024/01/29 00:09:21;;;;;;;;;;;9.70;78.00;;;9.53;43.37;101428.06;5118747;28;20521;-81
2024/01/29 00:11:49;;;;;;;5.80;2.00;;;9.70;78.50;;;9.53;43.20;101426.22;5117729;28;19923;-80
2024/01/29 00:14:18;;;;;;;5.35;1.60;;;9.70;78.20;;;9.49;42.98;101422.25;5117753;28;20039;-81
2024/01/29 00:16:47;;;;;;;5.07;2.15;;;9.70;77.80;;;9.48;43.04;101420.59;5118060;28;20155;-80
2024/01/29 00:19:14;;;;;;;3.83;2.10;;;9.60;77.80;;;9.47;43.72;101423.47;5100356;28;20089;-80
2024/01/29 00:21:42;;;;;;;4.15;2.05;;;9.60;78.80;;;9.43;43.33;101416.84;5118074;28;20044;-80
2024/01/29 00:24:09;;;;;;;4.28;2.17;;;9.60;78.40;;;9.40;43.38;101415.34;5117694;28;20036;-81
2024/01/29 00:26:39;;;;;;;7.95;2.13;;;9.50;78.60;;;9.40;43.77;101417.19;5119003;28;20072;-80
2024/01/29 00:29:07;;;;;;;6.93;2.25;;;9.50;79.00;;;9.39;43.64;101410.22;5117346;28;20059;-80
2024/01/29 00:31:37;;;;;;;4.15;2.17;;;9.50;79.00;;;9.35;43.64;101408.91;5082506;28;20048;-80
2024/01/29 00:34:04;;;;;;;4.78;2.15;;;9.50;78.90;;;9.34;43.96;101423.22;5117299;28;20050;-80
2024/01/29 00:36:32;;;;;;;3.85;2.08;;;9.50;79.50;;;9.34;43.72;101407.25;5117434;28;20120;-80
2024/01/29 00:38:59;;;;;;;6.03;2.40;;;9.50;79.40;;;9.37;44.18;101407.75;5117520;28;20502;-81
2024/01/29 00:41:27;;;;;;;4.50;2.45;;;9.50;79.80;;;9.34;44.07;101409.91;5117585;28;20490;-80
2024/01/29 00:43:55;;;;;;;4.72;2.38;;;9.50;79.60;;;9.33;44.32;101418.91;5117537;28;20044;-80
2024/01/29 00:46:22;;;;;;;4.63;2.10;;;9.40;79.70;;;9.28;43.93;101414.13;5099825;28;20044;-80
2024/01/29 00:48:51;;;;;;;3.80;2.00;;;9.40;79.30;;;9.26;44.22;101411.63;5099418;28;20101;-80
2024/01/29 00:51:18;;;;;;;4.93;2.22;;;9.40;79.80;;;9.25;44.35;101415.31;5117852;28;20098;-80
2024/01/29 00:53:47;;;;;;;5.55;2.08;;;9.40;80.00;;;9.22;44.37;101417.50;5117502;28;20036;-80
2024/01/29 00:56:14;;;;;;;4.53;2.25;;;9.30;79.90;;;9.21;44.26;101427.31;5098641;28;20078;-81
2024/01/29 00:58:45;;;;;;;5.25;2.00;;;9.30;80.00;;;9.20;44.46;101423.00;5098761;28;20479;-80
2024/01/29 01:01:16;;;;;;;5.22;2.30;;;9.30;80.20;;;9.18;44.03;101413.56;5117180;28;20043;-80
2024/01/29 01:03:43;;;;;;;4.68;2.05;;;9.30;79.80;;;9.18;44.68;101421.53;5117703;28;20109;-80
2024/01/29 01:06:12;;;;;;;4.50;2.00;;;9.30;80.80;;;9.18;43.99;101424.19;5117588;28;20415;-80
2024/01/29 01:08:40;;;;;;;6.10;2.25;;;9.30;79.60;;;9.19;44.08;101424.00;5099382;28;20122;-80
2024/01/29 01:11:08;;;;;;;4.95;2.50;;;9.30;79.80;;;9.20;44.63;101411.53;5117267;28;20097;-80
2024/01/29 01:13:35;;;;;;;4.10;2.03;;;9.30;80.40;;;9.18;44.26;101424.19;5098964;28;20052;-80
2024/01/29 01:16:04;;;;;;;4.63;2.10;;;9.30;79.90;;;9.16;44.73;101427.03;5116928;28;20071;-81
2024/01/29 01:18:31;;;;;;;4.20;2.10;;;9.30;80.80;;;9.14;44.90;101422.91;5101635;28;20103;-81
2024/01/29 01:21:04;;;;;;;4.97;2.00;;;9.20;81.00;;;9.11;45.17;101434.72;5121375;28;20126;-80
2024/01/29 01:23:33;;;;;;;4.35;2.03;;;9.20;81.40;;;9.12;45.43;101428.38;5121382;28;20044;-80
2024/01/29 01:26:01;;;;;;;4.15;2.00;;;9.20;81.70;;;9.12;45.35;101439.03;5121659;28;20039;-81
2024/01/29 01:28:31;;;;;;;4.47;2.20;;;9.20;81.90;;;9.15;45.01;101430.69;5102870;28;20039;-81
2024/01/29 01:30:58;;;;;;;4.72;2.25;;;9.30;81.50;;;9.15;45.33;101437.84;5104197;28;20060;-80
2024/01/29 01:33:26;;;;;;;4.38;2.42;;;9.30;81.80;;;9.12;45.10;101439.03;5121883;28;20040;-80
2024/01/29 01:35:53;;;;;;;4.57;2.33;;;9.20;81.60;;;9.13;45.52;101442.53;5120973;28;20044;-81
2024/01/29 01:38:20;;;;;;;4.80;2.10;;;9.30;82.20;;;9.18;45.46;101448.97;5102261;28;20044;-80
2024/01/29 01:40:50;;;;;;;4.38;2.40;;;9.30;82.00;;;9.18;44.95;101443.66;5121979;28;20039;-80
2024/01/29 01:43:18;;;;;;;5.30;2.22;;;9.30;81.20;;;9.21;45.28;101451.25;5120044;28;20118;-81
2024/01/29 01:45:46;;;;;;;5.05;1.90;;;9.40;81.60;;;9.18;45.53;101443.66;5102293;28;20506;-81
2024/01/29 01:48:14;;;;;;;4.28;2.10;;;9.30;81.80;;;9.15;45.51;101459.16;5103918;28;20047;-81
2024/01/29 01:50:42;;;;;;;4.05;2.10;;;9.30;82.30;;;9.12;45.67;101447.00;5102458;28;20040;-80
2024/01/29 01:53:09;;;;;;;5.22;2.42;;;9.20;82.30;;;9.16;45.49;101447.47;5069280;28;20123;-80
2024/01/29 01:55:37;;;;;;;4.53;2.35;;;9.30;82.40;;;9.15;45.94;101451.16;5103066;28;20039;-80
2024/01/29 01:58:08;;;;;;;4.78;2.20;;;9.30;82.80;;;9.16;45.60;101458.97;5122407;28;20135;-80
2024/01/29 02:00:36;;;;;;;5.15;2.38;;;9.30;82.60;;;9.16;45.72;101455.47;5103520;28;20039;-81
2024/01/29 02:03:05;;;;;;;5.03;2.17;;;9.30;82.50;;;9.11;45.85;101461.31;5103118;28;20059;-81
2024/01/29 02:05:33;;;;;;;4.75;2.25;;;9.30;82.90;;;9.12;46.09;101462.97;5103286;28;20089;-80
2024/01/29 02:08:01;;;;;;;7.72;2.30;;;9.20;82.90;;;9.10;45.96;101465.00;5103686;28;20052;-80
2024/01/29 02:10:31;;;;;;;4.43;2.20;;;9.20;83.10;;;9.13;45.71;101463.81;5068839;28;20039;-80
2024/01/29 02:12:58;;;;;;;5.05;2.00;;;9.30;82.80;;;9.12;45.78;101462.97;5121299;28;20052;-80
2024/01/29 02:15:27;;;;;;;5.65;2.35;;;9.30;82.90;;;9.10;46.14;101454.34;5082671;28;20052;-80
2024/01/29 02:17:54;;;;;;;5.90;2.67;;;9.20;83.10;;;9.08;46.57;101466.16;5118931;28;20051;-81
2024/01/29 02:20:31;;;;;;;4.57;2.25;;;9.20;84.00;;;9.03;46.28;101464.88;5069787;28;20077;-81
2024/01/29 02:23:00;;;;;;;4.00;1.90;;;9.20;83.80;;;9.05;46.46;101466.53;5121270;28;20063;-81
2024/01/29 02:25:28;;;;;;;4.53;2.20;;;9.10;83.90;;;9.02;46.84;101462.38;5102475;28;20078;-80
2024/01/29 02:27:56;;;;;;;4.65;2.47;;;9.10;84.70;;;8.97;46.74;101462.06;5121121;28;20105;-80
2024/01/29 02:30:23;;;;;;;3.83;1.95;;;9.10;84.60;;;8.99;46.88;101463.56;5103296;28;20078;-81
2024/01/29 02:32:51;;;;;;;6.53;2.35;;;9.10;84.80;;;8.99;46.74;101462.75;5101532;28;20460;-81
2024/01/29 02:35:19;;;;;;;4.07;2.30;;;9.10;84.60;;;8.96;46.87;101460.44;5120908;28;20043;-81
2024/01/29 02:37:52;;;;;;;4.35;2.25;;;9.00;84.90;;;8.96;46.95;101457.78;5119139;28;20054;-81
2024/01/29 02:40:21;;;;;;;4.55;2.22;;;9.00;84.90;;;8.94;47.04;101459.78;5121822;28;20039;-81
2024/01/29 02:42:49;;;;;;;6.38;2.30;;;9.00;84.90;;;8.94;46.53;101451.81;5100335;28;20040;-80
2024/01/29 02:45:17;;;;;;;4.50;2.25;;;9.00;84.40;;;8.95;46.52;101456.94;5118910;28;20387;-81
2024/01/29 02:47:44;;;;;;;4.80;2.20;;;9.00;84.50;;;8.95;46.71;101458.78;5100691;28;20114;-80
2024/01/29 02:50:14;;;;;;;4.80;2.40;;;9.00;85.00;;;8.94;46.87;101459.78;5134935;27;20043;-80
2024/01/29 02:52:42;;;;;;;5.17;2.00;;;9.00;85.10;;;8.95;47.00;101469.41;5101276;28;20101;-80
2024/01/29 02:55:12;;;;;;;4.78;2.20;;;9.00;85.30;;;8.95;46.80;101464.09;5118157;28;20036;-80
2024/01/29 02:57:41;;;;;;;4.35;2.20;;;9.00;85.00;;;8.96;46.88;101455.09;5119195;28;20474;-81
2024/01/29 03:00:24;;;;;;;4.80;2.20;;;9.00;85.00;;;8.97;46.79;101464.75;5099978;28;20562;-81
2024/01/29 03:02:57;;;;;;;4.28;2.17;;;9.00;85.00;;;8.96;47.12;101455.94;5101318;28;20062;-81
2024/01/29 03:05:24;;;;;;;4.85;2.40;;;9.00;85.30;;;8.95;46.82;101464.94;5120569;28;20067;-81
2024/01/29 03:07:52;;;;;;;5.20;2.22;;;9.00;85.20;;;8.97;46.62;101462.06;5101790;28;20067;-81
2024/01/29 03:10:19;;;;;;;4.45;2.33;;;9.00;84.60;;;8.97;46.70;101462.91;5101922;28;20047;-80
2024/01/29 03:12:52;;;;;;;5.30;2.35;;;9.00;84.80;;;8.96;46.92;101463.09;5135510;27;20067;-80
2024/01/29 03:15:20;;;;;;;4.70;2.50;;;9.00;85.00;;;8.96;47.12;101468.41;5101159;28;20069;-80
2024/01/29 03:17:47;;;;;;;5.47;2.60;;;9.00;85.50;;;8.93;47.30;101468.75;5100377;28;20049;-81
2024/01/29 03:20:15;;;;;;;5.72;2.17;;;8.90;85.90;;;8.90;47.48;101461.97;5120231;28;20048;-80
2024/01/29 03:22:42;;;;;;;6.57;2.58;;;8.90;86.30;;;8.89;47.69;101472.78;5120035;28;20039;-81
2024/01/29 03:25:10;;;;;;;3.83;2.15;;;8.90;86.70;;;8.89;47.22;101470.13;5102066;28;20051;-81
2024/01/29 03:27:38;;;;;;;4.70;2.10;;;8.90;86.10;;;8.88;47.37;101463.97;5119996;28;20059;-80
2024/01/29 03:30:11;;;;;;;5.72;2.70;;;8.90;86.50;;;8.89;47.53;101462.16;5119578;28;20048;-81
2024/01/29 03:32:40;;;;;;;5.72;2.10;;;8.80;86.70;;;8.87;47.15;101464.97;5119684;28;20046;-81
2024/01/29 03:35:12;;;;;;;5.78;2.17;;;8.80;86.10;;;8.89;47.36;101470.97;5101211;28;20047;-81
2024/01/29 03:37:40;;;;;;;5.15;2.58;;;8.90;86.50;;;8.90;47.30;101464.63;5102471;28;20059;-81
2024/01/29 03:40:09;;;;;;;5.80;2.15;;;8.90;86.40;;;8.88;47.70;101471.09;5122443;28;20039;-81
2024/01/29 03:42:38;;;;;;;5.03;2.35;;;8.80;86.90;;;8.88;47.44;101465.78;5119944;28;20047;-80
2024/01/29 03:45:08;;;;;;;4.10;2.03;;;8.80;86.60;;;8.87;47.76;101464.13;5084940;28;20502;-80
2024/01/29 03:47:34;;;;;;;5.47;2.00;;;8.80;86.90;;;8.87;47.95;101466.81;5101147;28;20523;-80
2024/01/29 03:50:05;;;;;;;4.28;2.38;;;8.80;87.70;;;8.85;47.65;101463.50;5119331;28;20119;-80
2024/01/29 03:52:32;;;;;;;4.85;2.50;;;8.80;87.10;;;8.85;47.74;101466.16;5119767;28;20051;-80
2024/01/29 03:55:00;;;;;;;5.45;2.13;;;8.80;87.30;;;8.85;47.91;101466.16;5101609;28;20040;-80
2024/01/29 03:57:30;;;;;;;5.03;2.33;;;8.80;87.80;;;8.84;48.06;101475.16;5120290;28;20089;-80
2024/01/29 03:59:58;;;;;;;4.40;2.10;;;8.80;87.70;;;8.82;48.16;101462.00;5084792;28;20147;-81
2024/01/29 04:02:27;;;;;;;3.90;2.13;;;8.80;88.10;;;8.81;48.21;101464.84;5084491;28;20364;-80
2024/01/29 04:04:54;;;;;;;6.90;2.55;;;8.70;88.30;;;8.78;48.12;101466.00;5118901;28;20474;-81
2024/01/29 04:07:22;;;;;;;4.72;2.40;;;8.70;88.10;;;8.76;48.52;101471.50;5119508;28;20051;-81
2024/01/29 04:09:50;;;;;;;4.75;2.60;;;8.70;88.70;;;8.70;48.52;101469.56;5100970;28;20453;-80
2024/01/29 04:12:18;;;;;;;5.68;2.28;;;8.70;88.50;;;8.71;48.76;101455.25;5100636;28;20067;-80
2024/01/29 04:14:46;;;;;;;4.35;2.28;;;8.70;89.30;;;8.70;48.71;101458.91;5100696;28;20134;-80
2024/01/29 04:17:13;;;;;;;6.75;2.78;;;8.70;89.20;;;8.70;48.50;101464.25;5100382;28;20422;-80
2024/01/29 04:19:42;;;;;;;4.88;2.30;;;8.70;88.60;;;8.70;48.57;101464.25;5084864;28;20046;-80
2024/01/29 04:22:09;;;;;;;4.50;2.42;;;8.70;88.70;;;8.72;48.63;101466.72;5100730;28;20063;-80
2024/01/29 04:24:40;;;;;;;4.65;2.20;;;8.70;89.30;;;8.71;49.01;101465.88;5118106;28;20406;-81
2024/01/29 04:27:10;;;;;;;6.38;2.80;;;8.70;89.80;;;8.71;48.91;101476.53;5118826;28;20044;-81
2024/01/29 04:29:43;;;;;;;6.00;2.47;;;8.60;90.00;;;8.71;49.64;101475.69;5100270;28;20452;-80
2024/01/29 04:32:14;;;;;;;5.25;2.35;;;8.60;91.20;;;8.70;50.25;101469.56;5100659;28;20078;-80
2024/01/29 04:34:47;;;;;;;6.82;2.80;;;8.60;92.30;;;8.70;50.32;101480.19;5119997;28;20053;-80
2024/01/29 04:37:15;;;;;;;5.72;2.25;;;8.60;92.60;;;8.69;50.98;101477.72;5103657;28;20047;-80
2024/01/29 04:39:43;;;;;;;5.40;2.60;;;8.60;94.10;;;8.66;51.43;101478.88;5120038;28;20132;-81
2024/01/29 04:42:10;;;;;;;5.72;2.33;;;8.50;94.90;;;8.60;50.85;101484.91;5085237;28;20065;-81
2024/01/29 04:44:41;;;;;;;5.90;2.60;;;8.50;94.20;;;8.58;50.95;101483.41;5118428;28;20039;-80
2024/01/29 04:47:09;;;;;;;5.20;2.47;;;8.40;94.20;;;8.55;51.28;101484.59;5103214;28;20502;-81
2024/01/29 04:49:37;;;;;;;5.43;2.40;;;8.40;95.10;;;8.54;51.87;101485.59;5101459;28;20486;-81
2024/01/29 04:52:06;;;;;;;8.25;2.80;;;8.40;96.30;;;8.55;51.63;101486.44;5084703;28;20077;-80
2024/01/29 04:54:33;;;;;;;5.32;2.30;;;8.40;96.10;;;8.54;51.38;101485.59;5103098;28;20457;-81
2024/01/29 04:57:01;;;;;;;5.85;2.67;;;8.40;95.80;;;8.53;51.61;101486.56;5123713;28;20127;-81
2024/01/29 04:59:28;;;;;;;4.82;2.40;;;8.40;96.80;;;8.52;51.85;101482.28;5088467;28;20521;-80
2024/01/29 05:01:55;;;;;;;4.47;2.25;;;8.40;97.10;;;8.49;51.67;101479.94;5124755;28;20104;-80
2024/01/29 05:04:23;;;;;;;6.80;2.40;;;8.30;97.10;;;8.48;52.05;101480.94;5105293;28;20116;-80
2024/01/29 05:06:50;;;;;;;5.90;2.60;;;8.30;97.70;;;8.44;51.37;101476.97;5124790;28;20046;-81
2024/01/29 05:09:23;;;;;;;6.22;2.30;;;8.20;96.80;;;8.41;50.91;101474.69;5105953;28;20111;-81
2024/01/29 05:11:51;;;;;;;4.90;2.58;;;8.20;96.60;;;8.37;50.56;101479.50;5123570;28;20167;-82
2024/01/29 05:14:18;;;;;;;4.88;2.70;;;8.30;95.30;;;8.39;50.63;101481.97;5103214;28;20476;-85
2024/01/29 05:16:47;;;;;;;5.63;2.40;;;8.30;95.20;;;8.41;51.12;101478.16;5120806;28;20036;-85
2024/01/29 05:19:15;;;;;;;6.07;2.72;;;8.30;96.00;;;8.42;51.09;101476.34;5120078;28;20092;-85
2024/01/29 05:21:42;;;;;;;5.45;2.60;;;8.30;96.10;;;8.42;51.62;101469.19;5101879;28;20040;-85
2024/01/29 05:24:10;;;;;;;4.63;2.42;;;8.30;97.00;;;8.45;51.44;101483.97;5119563;28;20043;-87
2024/01/29 05:26:39;;;;;;;5.70;2.35;;;8.30;97.60;;;8.44;51.53;101479.63;5100199;28;20039;-87
2024/01/29 05:29:07;;;;;;;5.22;2.45;;;8.30;97.50;;;8.43;51.93;101480.63;5100029;28;20086;-87
2024/01/29 05:31:35;;;;;;;5.60;2.40;;;8.30;98.50;;;8.41;52.38;101480.81;5117719;28;20043;-86
2024/01/29 05:34:03;;;;;;;6.55;2.60;;;8.20;98.90;;;8.39;52.21;101474.00;5099444;28;20071;-87
2024/01/29 05:36:32;;;;;;;4.32;2.35;;;8.20;99.10;;;8.37;52.68;101479.50;5081444;28;20054;-90
2024/01/29 05:39:00;;;;;;;4.82;2.67;;;8.20;99.80;;;8.35;51.42;101483.31;5098856;28;20631;-90
2024/01/29 05:41:28;;;;;;;4.72;2.40;;;8.20;98.40;;;8.33;51.83;101494.09;5116889;28;20555;-87
2024/01/29 05:43:57;;;;;;;7.53;2.50;;;8.20;98.60;;;8.33;51.84;101488.78;5098918;28;20061;-87
2024/01/29 05:46:25;;;;;;;5.22;2.45;;;8.20;98.60;;;8.35;51.73;101501.91;5101731;28;20047;-82
2024/01/29 05:48:52;;;;;;;5.40;2.58;;;8.20;98.50;;;8.36;51.51;101500.91;5053060;28;20052;-81
2024/01/29 05:51:21;;;;;;;5.55;2.80;;;8.20;98.30;;;8.34;51.39;101502.91;5080559;28;20055;-81
2024/01/29 05:53:49;;;;;;;5.45;2.60;;;8.20;98.60;;;8.34;51.93;101514.34;5063746;28;20060;-81
2024/01/29 05:56:17;;;;;;;7.88;3.03;;;8.20;99.50;;;8.34;51.96;101517.00;5097366;28;20491;-81
2024/01/29 05:58:46;;;;;;;5.05;2.80;;;8.20;99.90;;;8.35;52.65;101512.56;5110860;28;20445;-81
2024/01/29 06:01:15;;;;;;;9.63;3.30;;;8.20;99.90;;;8.34;52.64;101502.91;5101058;28;20031;-81
2024/01/29 06:03:42;;;;;;;8.57;4.10;;;8.10;99.90;;;8.33;53.11;101498.59;5083777;28;20047;-81
2024/01/29 06:06:10;;;;;;;14.07;5.63;;;8.10;99.90;;;8.30;52.72;101504.25;5100344;28;20067;-81
2024/01/29 06:08:39;;;;;;;14.75;6.55;;;8.10;99.90;;;8.29;53.03;101500.75;5119037;28;20123;-81
2024/01/29 06:11:06;;;;;;;13.40;5.85;;;8.10;99.90;;;8.29;53.11;101514.03;5100713;28;20044;-81
2024/01/29 06:13:34;;;;;;;10.77;4.88;;;8.10;99.90;;;8.29;53.10;101503.41;5119283;28;20051;-81
2024/01/29 06:16:01;;;;;;;8.75;3.20;;;8.10;99.90;;;8.25;52.49;101507.44;5084067;28;20039;-81
2024/01/29 06:18:30;;;;;;;5.82;3.13;;;8.10;99.90;;;8.22;53.33;101508.59;5079843;28;20498;-81
2024/01/29 06:20:58;;;;;;;6.28;3.35;;;8.00;99.90;;;8.23;53.26;101509.41;5098876;28;20028;-81
2024/01/29 06:23:27;;;;;;;5.57;3.15;;;8.10;99.90;;;8.22;53.71;101511.25;5098777;28;20380;-81
2024/01/29 06:25:54;;;;;;;7.13;3.35;;;8.00;99.90;;;8.20;53.13;101505.28;5081189;28;20048;-81
2024/01/29 06:28:22;;;;;;;6.35;3.20;;;8.00;99.90;;;8.17;53.23;101505.59;5081114;28;20572;-83
2024/01/29 06:30:49;;;;;;;5.95;3.22;;;8.00;99.90;;;8.18;52.92;101501.94;5080097;28;20059;-82
2024/01/29 06:33:16;;;;;;;5.70;2.95;;;8.00;99.90;;;8.17;52.86;101508.25;5097775;28;20048;-82
2024/01/29 06:35:45;;;;;;;5.70;2.70;;;8.10;99.90;;;8.19;53.18;101513.41;5098026;28;20060;-82
2024/01/29 06:38:13;;;;;;;5.80;2.97;;;8.10;99.90;;;8.21;53.35;101514.91;5078834;28;20135;-82
2024/01/29 06:40:40;;;;;;;6.20;3.20;;;8.10;99.90;;;8.20;53.61;101531.84;5095975;28;20495;-82
2024/01/29 06:43:10;;;;;;;5.78;3.05;;;8.10;99.90;;;8.21;54.01;101530.84;5078949;28;20101;-82
2024/01/29 06:45:38;;;;;;;6.05;3.30;;;8.10;99.90;;;8.21;53.77;101540.66;5079698;28;20491;-82
2024/01/29 06:48:08;;;;;;;6.82;3.10;;;8.10;99.90;;;8.19;53.41;101535.50;5078561;28;20044;-82
2024/01/29 06:50:36;;;;;;;7.72;3.45;;;8.00;99.90;;;8.20;53.84;101539.81;5062397;28;20461;-82
2024/01/29 06:53:05;;;;;;;6.80;3.10;;;8.00;99.90;;;8.19;53.54;101542.63;5079750;28;20051;-82
2024/01/29 06:55:32;;;;;;;6.60;3.33;;;8.00;99.90;;;8.18;54.10;101538.31;5097383;28;20036;-82
2024/01/29 06:58:00;;;;;;;6.22;3.03;;;8.00;99.90;;;8.16;54.24;101546.47;5098220;28;20036;-82
2024/01/29 07:00:28;;;;;;;5.95;3.30;;;7.90;99.90;;;8.15;54.35;101539.50;5079049;28;20051;-82
2024/01/29 07:02:55;;;;;;;7.30;3.25;;;7.90;99.90;;;8.13;54.31;101538.81;5078848;28;20078;-82
2024/01/29 07:05:22;;;;;;;7.35;3.20;;;7.90;99.90;;;8.12;54.52;101533.69;5078127;28;20093;-82
2024/01/29 07:07:50;;;;;;;9.57;3.50;;;8.00;99.90;;;8.09;54.33;101545.47;5097512;28;20036;-82
2024/01/29 07:10:19;;;;;;;7.78;3.53;;;7.90;99.90;;;8.09;54.38;101539.31;5078537;28;20040;-82
2024/01/29 07:12:46;;;;;;;8.52;3.15;;;7.90;99.90;;;8.08;54.13;101537.69;5096357;28;20461;-82
2024/01/29 07:15:15;;;;;;;6.15;3.28;;;7.90;99.90;;;8.09;54.47;101542.81;5096895;28;20044;-82
2024/01/29 07:17:42;;;;;;;6.88;3.17;;;7.90;99.90;;;8.09;54.84;101539.31;5077612;28;20521;-82
2024/01/29 07:20:12;;;;;;;6.28;3.20;;;7.90;99.90;;;8.10;54.96;101543.63;5078173;28;20036;-82
2024/01/29 07:22:42;;;;;;;8.07;3.58;;;7.90;99.90;;;8.10;55.02;101540.97;5096661;28;20040;-82
2024/01/29 07:25:10;;;;;;;6.07;3.35;;;7.90;99.90;;;8.10;54.83;101546.28;5111919;28;20427;-82
2024/01/29 07:27:38;;;;;;;7.60;3.33;;;7.90;99.90;;;8.10;54.88;101557.78;5096746;28;20487;-82
2024/01/29 07:30:08;;;;;;;6.85;3.10;;;7.90;99.90;;;8.08;55.10;101558.94;5096702;28;20040;-82
2024/01/29 07:32:35;;;;;;;7.10;3.10;;;7.80;99.90;;;8.07;55.12;101559.94;5078309;28;20054;-82
2024/01/29 07:35:03;;;;;;;8.60;2.83;;;7.80;99.90;;;8.06;55.28;101555.63;5096211;28;20040;-82
2024/01/29 07:37:31;;;;;;;7.00;3.15;;;7.80;99.90;;;8.05;55.25;101565.41;5078172;28;20049;-82
2024/01/29 07:39:59;;;;;;;6.00;3.35;;;7.80;99.90;;;8.04;55.25;101570.88;5095794;28;20097;-82
2024/01/29 07:42:26;;;;;;;6.13;3.40;;;7.80;99.90;;;8.02;55.15;101568.41;5096567;28;20035;-82
2024/01/29 07:44:55;;;;;;;6.63;3.00;;;7.80;99.90;;;8.02;55.50;101570.22;5094749;28;20070;-82
2024/01/29 07:47:22;;;;;;;11.68;3.67;;;7.80;99.90;;;8.01;55.41;101572.06;5096589;28;20040;-82
2024/01/29 07:49:49;;;;;;;6.88;3.88;;;7.80;99.90;;;7.98;55.24;101583.84;5095258;28;20073;-82
2024/01/29 07:52:17;;;;;;;8.93;3.67;;;7.80;99.90;;;7.98;55.35;101583.00;5096404;28;20115;-81
2024/01/29 07:54:45;;;;;;;7.10;3.53;;;7.80;99.90;;;8.00;55.80;101584.53;5061852;28;20135;-82
2024/01/29 07:57:12;;;;;;;8.63;3.65;;;7.80;99.90;;;7.99;55.54;101582.00;5096433;28;20036;-82
2024/01/29 07:59:44;;;;;;;7.38;3.67;;;7.80;99.90;;;8.02;55.78;101594.97;5078173;28;20044;-82
2024/01/29 08:02:12;;;;;;;6.53;3.70;;;7.80;99.90;;;8.03;56.03;101586.00;5078468;28;20491;-82
2024/01/29 08:04:40;;;;;;;7.55;3.35;;;7.80;99.90;;;8.05;56.12;101591.97;5096196;28;20518;-82
2024/01/29 08:07:08;;;;;;;6.32;3.45;;;7.90;99.90;;;8.06;56.01;101593.66;5077292;28;20135;-82
2024/01/29 08:09:35;;;;;;;8.57;3.60;;;7.90;99.90;;;8.02;56.13;101581.69;5095760;28;20051;-82
2024/01/29 08:12:05;;;;;;;7.13;3.42;;;7.90;99.90;;;8.03;56.27;101583.34;5096152;28;20046;-82
2024/01/29 08:14:32;;;;;;;8.55;3.65;;;7.90;99.90;;;8.05;56.05;101591.97;5061283;28;20131;-82
2024/01/29 08:17:00;;;;;;;9.23;4.10;;;7.90;99.90;;;8.06;55.92;101598.13;5094601;28;20040;-82
2024/01/29 08:19:29;;;;;;;6.93;3.88;;;7.90;99.90;;;7.96;55.83;101582.38;5062010;28;20132;-82
2024/01/29 08:21:56;;;;;;;9.60;3.90;;;7.90;99.90;;;7.99;55.86;101579.34;5095881;28;20083;-82
2024/01/29 08:24:24;;;;;;;11.35;4.18;;;8.00;99.90;;;8.01;56.34;101569.41;5077765;28;20079;-82
2024/01/29 08:26:51;;;;;;;6.80;4.03;;;8.00;99.90;;;8.00;56.84;101562.41;5095321;28;20040;-82
2024/01/29 08:29:18;;;;;;;8.80;4.15;;;8.00;99.90;;;8.04;56.79;101569.06;5080195;28;20070;-82
2024/01/29 08:31:45;;;;;;;7.28;4.18;;;8.00;99.90;;;8.06;56.71;101569.72;5100229;28;20570;-82
2024/01/29 08:34:13;;;;;;;8.98;4.18;;;8.10;99.90;;;8.10;56.83;101562.25;5100907;28;20097;-82
2024/01/29 08:36:42;;;;;;;10.88;4.00;;;8.10;99.90;;;8.16;56.68;101561.59;5099223;28;20036;-82
2024/01/29 08:39:09;;;;;;;11.40;4.20;;;8.10;99.90;;;8.17;56.77;101564.06;5115781;28;20051;-82
2024/01/29 08:41:36;;;;;;;11.90;4.30;;;8.20;99.90;;;8.22;56.91;101559.06;5100504;28;20040;-82
2024/01/29 08:44:05;;;;;;;9.85;4.05;;;8.20;99.90;;;8.29;56.81;101566.38;5081881;28;20044;-82
2024/01/29 08:46:33;;;;;;;8.50;4.20;;;8.30;99.90;;;8.34;57.34;101578.16;5099893;28;20043;-82
2024/01/29 08:49:01;;;;;;;7.93;4.20;;;8.40;99.90;;;8.37;57.57;101577.03;5081937;28;20460;-82
2024/01/29 08:51:28;;;;;;;7.28;4.13;;;8.40;99.90;;;8.39;57.55;101578.50;5081058;28;20097;-82
2024/01/29 08:53:57;;;;;;;8.43;3.97;;;8.40;99.90;;;8.42;57.38;101582.66;5099173;28;20048;-82
2024/01/29 08:56:24;;;;;;;7.60;4.38;;;8.40;99.90;;;8.46;57.10;101584.00;5097821;28;20094;-82
2024/01/29 08:58:52;;;;;;;10.60;4.40;;;8.50;99.90;;;8.50;57.36;101582.66;5064404;28;20044;-82
2024/01/29 09:01:19;;;;;;;12.20;4.63;;;8.60;99.90;;;8.52;57.25;101583.28;5064193;28;20040;-82
2024/01/29 09:03:47;;;;;;;8.35;4.28;;;8.60;99.90;;;8.58;57.55;101587.94;5099060;28;20564;-82
2024/01/29 09:06:15;;;;;;;8.82;4.20;;;8.70;99.90;;;8.61;57.41;101590.25;5080859;28;20048;-82
2024/01/29 09:08:46;;;;;;;8.98;4.72;;;8.70;99.90;;;8.68;57.23;101587.72;5099114;28;20503;-82
2024/01/29 09:11:16;;;;;;;;;;;8.80;99.90;;;8.71;57.11;101585.56;5080783;28;20044;-82
2024/01/29 09:13:43;;;;;;;8.73;4.50;;;8.80;99.90;;;8.71;57.24;101590.88;5098566;28;19927;-82
2024/01/29 09:16:11;;;;;;;8.52;4.03;;;8.80;99.90;;;8.69;57.40;101592.91;5080601;28;20054;-82
2024/01/29 09:18:38;;;;;;;10.80;4.82;;;8.80;99.90;;;8.70;57.40;101585.75;5080320;28;20044;-82
2024/01/29 09:21:06;;;;;;;9.15;4.47;;;8.80;99.90;;;8.71;57.50;101593.53;5081038;28;20131;-82
2024/01/29 09:23:33;;;;;;;10.82;4.90;;;8.80;99.90;;;8.72;57.58;101600.53;5080336;28;20052;-82
2024/01/29 09:26:00;;;;;;;9.48;4.50;;;8.80;99.90;;;8.75;57.24;101600.19;5098519;28;20072;-82
2024/01/29 09:28:29;;;;;;;7.68;4.30;;;8.80;99.90;;;8.77;57.34;101598.16;5080226;28;20046;-82
2024/01/29 09:30:56;;;;;;;8.48;4.72;;;8.90;99.90;;;8.82;57.34;101605.63;5098398;28;20042;-82
2024/01/29 09:33:26;;;;;;;9.32;4.63;;;8.90;99.90;;;8.82;57.35;101602.97;5063120;28;20075;-82
2024/01/29 09:35:53;;;;;;;9.77;4.60;;;8.90;99.90;;;8.84;57.71;101603.66;5099190;28;20052;-84
2024/01/29 09:38:22;;;;;;;7.95;4.40;;;8.90;99.90;;;8.84;57.44;101608.16;5080345;28;20040;-85
2024/01/29 09:40:50;;;;;;;7.60;4.35;;;8.90;99.90;;;8.85;57.49;101594.66;5098680;28;20051;-85
2024/01/29 09:43:21;;;;;;;7.68;4.40;;;9.00;99.90;;;8.86;56.68;101601.63;5081648;28;20461;-84
2024/01/29 09:45:53;;;;;;;;;;;9.00;99.90;;;8.88;56.93;101596.13;5100644;28;20123;-84
2024/01/29 09:48:21;;;;;;;;;;;9.00;99.90;;;8.88;57.20;101610.31;5100437;28;19927;-84
2024/01/29 09:50:52;;;;;;;8.60;4.43;;;9.00;99.90;;;8.90;57.34;101600.31;5048662;28;19920;-84
2024/01/29 09:53:21;;;;;;;9.80;4.70;;;9.00;99.90;;;8.95;57.57;101607.78;5099917;28;20040;-84
2024/01/29 09:55:48;;;;;;;7.18;4.40;;;9.10;99.90;;;8.95;58.00;101600.63;5082047;28;20044;-84
2024/01/29 09:58:16;;;;;;;8.75;4.53;;;9.10;99.90;;;8.98;57.29;101610.09;5082249;28;20054;-85
2024/01/29 10:00:43;;;;;;;9.02;4.88;;;9.10;99.90;;;9.02;57.21;101606.06;5081651;28;20044;-84
2024/01/29 10:03:23;;;;;;;8.35;4.65;;;9.20;99.90;;;9.07;57.20;101609.03;5081746;28;20044;-84
2024/01/29 10:05:52;;;;;;;7.90;4.57;;;9.20;99.90;;;9.12;57.63;101609.34;5081397;28;20055;-84
2024/01/29 10:08:24;;;;;;;12.15;4.70;;;9.30;99.90;;;9.19;57.42;101614.81;5113981;28;20127;-85
2024/01/29 10:10:52;;;;;;;8.13;4.10;;;9.40;99.90;;;9.23;57.12;101618.78;5096215;28;20048;-85
2024/01/29 10:13:20;;;;;;;8.73;4.68;;;9.40;99.90;;;9.27;57.09;101620.94;5063174;28;20400;-84
2024/01/29 10:15:48;;;;;;;9.15;4.10;;;9.40;99.90;;;9.32;56.96;101622.22;5081030;28;20044;-84
2024/01/29 10:18:17;;;;;;;9.18;4.90;;;9.50;99.90;;;9.33;57.13;101615.91;5099591;28;20036;-83
2024/01/29 10:20:44;;;;;;;9.93;4.53;;;9.50;99.90;;;9.33;57.16;101618.59;5098605;28;20077;-84
2024/01/29 10:23:13;;;;;;;7.85;4.43;;;9.50;99.90;;;9.34;57.13;101620.22;5098549;28;20085;-84
2024/01/29 10:25:41;;;;;;;7.57;4.22;;;9.50;99.90;;;9.40;56.90;101623.00;5114781;28;20048;-83
2024/01/29 10:28:12;;;;;;;6.32;3.90;;;9.60;99.90;;;9.42;57.38;101623.69;5099767;28;20499;-83
2024/01/29 10:30:40;;;;;;;;;;;9.60;99.90;;;9.43;57.14;101621.84;5080279;28;20048;-83
2024/01/29 10:33:08;;;;;;;8.95;4.75;;;9.60;99.90;;;9.48;57.35;101622.16;5079522;28;19927;-84